Time;durP1;ratioP1;P1;durP2;ratioP2;P2;SDS_P1;SDS_P2;PMS_P1;PMS_P2;Temp;Humidity;BMP_temperature;BMP_pressure;BME280_temperature;BME280_humidity;BME280_pressure;Samples;Min_cycle;Max_cycle;Signal;HPM_P1;HPM_P2
2022/12/07 00:00:40;;;;;;;11.73;5.82;;;;;;;2.54;100.00;98880.28;4988914;28;20070;-73
2022/12/07 00:03:05;;;;;;;13.05;5.72;;;;;;;2.53;100.00;98888.41;5005991;28;20025;-74
2022/12/07 00:05:31;;;;;;;12.32;6.45;;;;;;;2.41;100.00;98880.63;4999471;28;20045;-73
2022/12/07 00:07:56;;;;;;;11.10;6.20;;;;;;;2.50;100.00;98910.94;5002700;28;20022;-73
2022/12/07 00:10:21;;;;;;;11.32;6.50;;;;;;;2.34;100.00;98889.38;4990389;28;20058;-73
2022/12/07 00:12:46;;;;;;;10.32;6.35;;;;;;;2.26;100.00;98876.78;4993796;28;20106;-74
2022/12/07 00:15:12;;;;;;;11.38;6.68;;;;;;;2.28;100.00;98897.97;4993205;28;20034;-73
2022/12/07 00:17:37;;;;;;;10.77;5.38;;;;;;;2.22;100.00;98886.06;4998696;28;20072;-77
2022/12/07 00:20:03;;;;;;;12.55;6.03;;;;;;;2.27;100.00;98898.97;4987488;28;20045;-73
2022/12/07 00:22:29;;;;;;;11.00;5.60;;;;;;;2.16;100.00;98889.31;4993845;28;20030;-73
2022/12/07 00:24:54;;;;;;;13.00;6.82;;;;;;;2.12;100.00;98886.13;4995260;28;20033;-74
2022/12/07 00:27:20;;;;;;;13.02;6.50;;;;;;;1.99;100.00;98861.56;4991391;28;20492;-75
2022/12/07 00:29:45;;;;;;;11.75;6.13;;;;;;;2.10;100.00;98888.09;4993736;28;20045;-74
2022/12/07 00:32:10;;;;;;;12.40;5.82;;;;;;;2.10;100.00;98881.91;4989640;28;20030;-73
2022/12/07 00:34:35;;;;;;;10.95;5.15;;;;;;;2.04;100.00;98871.81;4991277;28;20101;-74
2022/12/07 00:37:01;;;;;;;9.88;5.25;;;;;;;2.05;100.00;98876.19;5011440;28;20485;-74
2022/12/07 00:39:26;;;;;;;11.43;5.40;;;;;;;2.10;100.00;98881.91;4992759;28;20027;-74
2022/12/07 00:41:52;;;;;;;13.00;4.90;;;;;;;2.00;100.00;98865.13;4985343;28;20026;-74
2022/12/07 00:44:17;;;;;;;11.30;5.10;;;;;;;2.16;100.00;98886.66;5002791;28;20030;-74
2022/12/07 00:46:42;;;;;;;9.80;5.65;;;;;;;2.17;100.00;98878.50;4996765;28;20029;-72
2022/12/07 00:49:08;;;;;;;10.18;4.97;;;;;;;2.15;100.00;98869.81;5000794;28;20045;-74
2022/12/07 00:51:33;;;;;;;11.25;5.70;;;;;;;2.14;100.00;98861.94;4987121;28;20030;-74
2022/12/07 00:53:58;;;;;;;11.95;6.00;;;;;;;2.29;100.00;98878.31;4990885;28;20050;-74
2022/12/07 00:56:26;;;;;;;9.25;5.25;;;;;;;2.14;100.00;98851.25;4991973;28;20476;-74
2022/12/07 00:58:56;;;;;;;12.10;6.17;;;;;;;2.29;100.00;98879.13;4989526;28;20037;-74
2022/12/07 01:01:22;;;;;;;9.48;5.50;;;;;;;2.31;100.00;98874.50;4980256;28;20585;-74
2022/12/07 01:03:47;;;;;;;8.43;4.97;;;;;;;2.26;100.00;98866.09;4986426;28;20022;-73
2022/12/07 01:06:17;;;;;;;12.35;5.30;;;;;;;2.23;100.00;98873.53;4995311;28;20022;-74
2022/12/07 01:08:43;;;;;;;10.75;5.68;;;;;;;2.23;100.00;98871.75;4997830;28;20022;-76
2022/12/07 01:11:13;;;;;;;11.85;6.35;;;;;;;2.15;100.00;98863.63;4985323;28;20386;-74
2022/12/07 01:13:38;;;;;;;;;;;;;;;2.24;100.00;98894.75;4987457;28;20023;-74
2022/12/07 01:16:05;;;;;;;13.55;5.93;;;;;;;2.19;100.00;98889.03;5005416;28;19917;-74
2022/12/07 01:18:32;;;;;;;16.02;7.07;;;;;;;2.25;100.00;98901.78;5002747;28;20491;-74
2022/12/07 01:21:04;;;;;;;11.75;6.05;;;;;;;2.22;100.00;98877.22;4990467;28;20034;-73
2022/12/07 01:23:30;;;;;;;13.00;5.90;;;;;;;2.14;100.00;98856.59;4989038;28;20419;-73
2022/12/07 01:26:01;;;;;;;12.05;6.43;;;;;;;2.29;100.00;98889.00;4993063;28;20033;-74
2022/12/07 01:28:27;;;;;;;12.45;6.70;;;;;;;2.02;100.00;98847.97;4994763;28;20389;-74
2022/12/07 01:31:07;;;;;;;12.52;6.75;;;;;;;2.22;100.00;98888.72;4992658;28;20037;-74
2022/12/07 01:33:35;;;;;;;14.05;6.65;;;;;;;2.24;100.00;98894.75;4979402;28;20065;-74
2022/12/07 01:36:05;;;;;;;12.90;6.78;;;;;;;2.05;100.00;98873.50;4988167;28;20078;-73
2022/12/07 01:38:31;;;;;;;12.02;6.50;;;;;;;2.10;100.00;98884.59;4991080;28;20129;-71
2022/12/07 01:40:58;;;;;;;11.68;6.43;;;;;;;2.12;100.00;98895.94;4989786;28;20072;-73
2022/12/07 01:43:25;;;;;;;13.77;6.28;;;;;;;2.15;100.00;98895.66;4990343;28;20026;-74
2022/12/07 01:45:51;;;;;;;11.60;5.70;;;;;;;2.04;100.00;98887.81;4993525;28;20404;-73
2022/12/07 01:48:20;;;;;;;13.15;6.00;;;;;;;2.06;100.00;98883.19;4990831;28;20034;-73
2022/12/07 01:50:50;;;;;;;12.02;6.03;;;;;;;2.19;100.00;98913.03;4984387;28;20033;-74
2022/12/07 01:53:16;;;;;;;;;;;;;;;2.18;100.00;98914.03;4993927;28;20038;-73
2022/12/07 01:55:45;;;;;;;12.10;6.35;;;;;;;2.12;100.00;98904.81;4994039;28;19914;-73
2022/12/07 01:58:11;;;;;;;;;;;;;;;2.10;100.00;98903.28;4995814;28;20034;-73
2022/12/07 02:00:37;;;;;;;13.30;5.18;;;;;;;2.07;100.00;98904.41;4985494;28;19922;-73
2022/12/07 02:03:09;;;;;;;13.80;6.45;;;;;;;2.06;100.00;98902.69;4990175;28;20031;-74
2022/12/07 02:05:36;;;;;;;13.48;6.20;;;;;;;1.92;100.00;98880.00;5010813;28;20101;-74
2022/12/07 02:08:03;;;;;;;14.15;6.47;;;;;;;2.03;100.00;98896.84;4996107;28;20038;-74
2022/12/07 02:10:30;;;;;;;15.07;6.30;;;;;;;1.97;100.00;98890.25;4993215;28;20033;-74
2022/12/07 02:13:01;;;;;;;13.70;6.80;;;;;;;2.02;100.00;98909.34;4989916;28;20072;-73
2022/12/07 02:15:36;;;;;;;16.92;6.70;;;;;;;1.97;100.00;98888.41;4994185;28;20031;-74
2022/12/07 02:18:55;;;;;;;13.82;6.35;;;;;;;2.09;100.00;98906.91;4994345;28;20476;-74
2022/12/07 02:21:28;;;;;;;15.10;6.70;;;;;;;2.03;100.00;98892.31;4962437;28;20120;-72
2022/12/07 02:24:27;;;;;;;17.60;7.25;;;;;;;2.05;100.00;98905.53;5002931;28;20026;-73
2022/12/07 02:27:16;;;;;;;12.32;6.65;;;;;;;1.92;100.00;98885.34;5004838;28;20026;-74
2022/12/07 02:30:01;;;;;;;;;;;;;;;1.97;100.00;98900.94;4992428;28;20061;-74
2022/12/07 02:32:37;;;;;;;17.48;7.28;;;;;;;1.84;100.00;98876.41;4982971;28;19914;-74
2022/12/07 02:35:17;;;;;;;12.55;6.82;;;;;;;1.81;100.00;98880.22;4995307;28;20022;-74
2022/12/07 02:38:16;;;;;;;13.45;6.68;;;;;;;1.82;100.00;98894.38;4995962;28;20030;-72
2022/12/07 02:40:55;;;;;;;14.95;6.45;;;;;;;1.76;100.00;98893.13;5005836;28;20065;-75
2022/12/07 02:43:25;;;;;;;16.05;6.60;;;;;;;1.63;100.00;98881.94;4991930;28;20022;-74
2022/12/07 02:46:02;;;;;;;16.08;7.00;;;;;;;1.54;100.00;98881.81;4988824;28;20026;-75
2022/12/07 02:48:27;;;;;;;13.48;7.03;;;;;;;1.48;100.00;98882.38;4991802;28;20095;-75
2022/12/07 02:50:54;;;;;;;15.88;7.25;;;;;;;1.58;100.00;98881.53;4985945;28;20046;-76
2022/12/07 02:53:29;;;;;;;20.35;7.47;;;;;;;1.45;100.00;98877.34;4992945;28;20135;-75
2022/12/07 02:55:55;;;;;;;17.25;6.93;;;;;;;1.39;100.00;98880.59;4994012;28;20829;-75
2022/12/07 02:58:37;;;;;;;20.75;7.32;;;;;;;1.23;100.00;98867.00;4985096;28;20033;-75
2022/12/07 03:01:20;;;;;;;16.45;7.03;;;;;;;1.16;100.00;98868.56;4991682;28;20022;-75
2022/12/07 03:03:54;;;;;;;16.85;7.20;;;;;;;0.97;100.00;98850.75;5009638;28;20022;-75
2022/12/07 03:06:25;;;;;;;17.98;7.28;;;;;;;1.08;100.00;98879.94;4998497;28;20022;-75
2022/12/07 03:09:21;;;;;;;17.05;7.63;;;;;;;1.07;100.00;98878.22;4989405;28;20151;-73
2022/12/07 03:12:00;;;;;;;18.95;7.50;;;;;;;0.96;100.00;98855.25;4990640;28;20109;-74
2022/12/07 03:14:33;;;;;;;17.08;7.57;;;;;;;1.00;100.00;98856.66;4990926;28;20034;-74
2022/12/07 03:17:09;;;;;;;20.15;8.77;;;;;;;1.12;100.00;98880.47;4994734;28;20053;-73
2022/12/07 03:19:37;;;;;;;22.27;8.48;;;;;;;1.04;100.00;98863.38;4995760;28;20022;-73
2022/12/07 03:22:07;;;;;;;21.27;8.77;;;;;;;1.13;100.00;98877.69;4989662;28;20037;-72
2022/12/07 03:24:42;;;;;;;21.67;8.30;;;;;;;1.12;100.00;98873.31;4991216;28;20045;-74
2022/12/07 03:27:23;;;;;;;23.20;8.50;;;;;;;1.13;100.00;98879.47;4988472;28;20026;-74
2022/12/07 03:29:52;;;;;;;24.55;8.70;;;;;;;1.13;100.00;98869.69;4992745;28;20026;-74
2022/12/07 03:32:26;;;;;;;23.92;9.07;;;;;;;1.07;100.00;98863.09;5008335;28;20026;-73
2022/12/07 03:35:00;;;;;;;19.60;8.38;;;;;;;1.27;100.00;98892.38;4992337;28;20033;-73
2022/12/07 03:37:42;;;;;;;26.35;9.27;;;;;;;1.22;100.00;98860.81;5002339;28;20480;-73
2022/12/07 03:40:19;;;;;;;26.65;10.23;;;;;;;1.24;100.00;98844.72;4989682;28;20022;-73
2022/12/07 03:42:45;;;;;;;21.98;10.10;;;;;;;1.31;100.00;98841.31;4990814;28;20388;-71
2022/12/07 03:45:11;;;;;;;19.27;8.80;;;;;;;1.34;100.00;98836.66;4986934;28;20089;-74
2022/12/07 03:47:48;;;;;;;22.27;9.32;;;;;;;1.31;100.00;98862.66;5007287;28;20089;-74
2022/12/07 03:50:25;;;;;;;18.77;8.70;;;;;;;1.34;100.00;98837.53;5003288;28;20044;-73
2022/12/07 03:53:03;;;;;;;20.70;9.70;;;;;;;1.24;100.00;98824.22;4985674;28;20042;-72
2022/12/07 03:55:32;;;;;;;25.05;10.23;;;;;;;1.32;100.00;98836.84;4998473;28;20034;-71
2022/12/07 03:58:07;;;;;;;;;;;;;;;1.45;100.00;98845.34;4993246;28;20024;-72
2022/12/07 04:00:32;;;;;;;21.45;10.05;;;;;;;1.32;100.00;98810.19;4986241;28;19929;-72
2022/12/07 04:02:58;;;;;;;23.05;9.75;;;;;;;1.53;100.00;98841.97;4990749;28;20033;-72
2022/12/07 04:05:24;;;;;;;28.13;10.02;;;;;;;1.54;100.00;98855.13;4993012;28;20392;-73
2022/12/07 04:07:49;;;;;;;21.17;10.10;;;;;;;1.46;100.00;98820.38;4994083;28;20053;-73
2022/12/07 04:10:15;;;;;;;22.35;9.85;;;;;;;1.66;100.00;98853.16;4993566;28;20030;-73
2022/12/07 04:17:05;;;;;;;20.30;9.15;;;;;;;1.79;100.00;98857.34;5018665;28;20030;-84
2022/12/07 04:19:33;;;;;;;18.25;9.00;;;;;;;1.75;100.00;98843.44;5016682;28;20512;-80
2022/12/07 04:22:04;;;;;;;19.67;9.00;;;;;;;1.87;100.00;98850.28;5005581;28;20476;-83
2022/12/07 04:28:33;;;;;;;15.57;7.70;;;;;;;2.03;100.00;98868.31;5019761;28;20044;-86
2022/12/07 04:35:38;;;;;;;18.40;8.07;;;;;;;2.04;100.00;98859.31;4932143;28;20087;-84
2022/12/07 04:42:02;;;;;;;14.63;7.60;;;;;;;1.91;100.00;98835.66;4944025;28;20150;-84
2022/12/07 04:58:27;;;;;;;20.17;7.68;;;;;;;1.49;100.00;98792.56;4760598;29;20050;-81
2022/12/07 05:00:55;;;;;;;15.32;7.65;;;;;;;1.78;100.00;98863.63;4837789;29;20133;-84
2022/12/07 05:03:20;;;;;;;16.98;8.52;;;;;;;1.28;100.00;98790.13;4916434;29;20150;-77
2022/12/07 05:05:45;;;;;;;16.58;7.97;;;;;;;1.25;100.00;98819.72;4981707;28;20065;-81
2022/12/07 05:08:11;;;;;;;18.85;9.10;;;;;;;1.19;100.00;98813.16;5007725;28;20029;-84
2022/12/07 05:10:37;;;;;;;17.08;8.80;;;;;;;1.22;100.00;98812.84;5006426;28;20050;-77
2022/12/07 05:13:02;;;;;;;20.25;9.20;;;;;;;1.22;100.00;98828.00;4994052;28;20056;-80
2022/12/07 05:15:28;;;;;;;17.80;8.98;;;;;;;1.19;100.00;98815.81;5007103;28;20089;-79
2022/12/07 05:17:53;;;;;;;19.60;9.25;;;;;;;1.12;100.00;98788.06;4981541;28;20440;-80
2022/12/07 05:20:19;;;;;;;19.67;9.48;;;;;;;1.12;100.00;98780.06;4977624;28;20030;-79
2022/12/07 05:22:44;;;;;;;19.98;9.32;;;;;;;1.45;100.00;98833.84;4982546;28;20401;-80
2022/12/07 05:25:09;;;;;;;19.15;9.73;;;;;;;1.09;100.00;98781.19;4995939;28;20055;-84
2022/12/07 05:27:35;;;;;;;20.90;10.13;;;;;;;1.02;100.00;98772.13;4996526;28;20027;-80
2022/12/07 05:30:00;;;;;;;26.40;10.95;;;;;;;1.02;100.00;98780.09;4982416;28;20031;-81
2022/12/07 05:32:25;;;;;;;18.90;9.95;;;;;;;1.40;100.00;98844.13;4990390;28;20038;-81
2022/12/07 05:34:51;;;;;;;21.02;10.38;;;;;;;1.16;100.00;98810.78;4990806;28;20031;-85
2022/12/07 05:37:16;;;;;;;23.30;9.48;;;;;;;1.19;100.00;98817.66;4969058;28;20392;-77
2022/12/07 05:39:42;;;;;;;20.52;10.52;;;;;;;1.30;100.00;98830.81;4989674;28;20184;-79
2022/12/07 05:42:13;;;;;;;17.73;9.82;;;;;;;0.70;100.00;98743.13;4983274;28;20021;-78
2022/12/07 05:44:40;;;;;;;22.08;10.05;;;;;;;1.40;100.00;98857.44;4973365;28;20026;-78
2022/12/07 05:47:06;;;;;;;28.33;11.02;;;;;;;1.46;100.00;98860.34;4972663;28;20100;-77
2022/12/07 05:49:40;;;;;;;22.13;10.75;;;;;;;1.42;100.00;98853.66;4997281;28;20071;-77
2022/12/07 05:52:06;;;;;;;24.52;10.45;;;;;;;1.41;100.00;98854.63;4973110;28;20495;-79
2022/12/07 05:54:31;;;;;;;22.10;10.52;;;;;;;1.47;100.00;98858.56;4972731;28;20119;-80
2022/12/07 05:56:57;;;;;;;25.83;10.77;;;;;;;1.33;100.00;98835.84;4992192;28;20031;-77
2022/12/07 05:59:56;;;;;;;20.42;10.23;;;;;;;1.50;100.00;98851.09;4981929;28;20113;-84
2022/12/07 06:02:29;;;;;;;24.33;10.50;;;;;;;1.21;100.00;98800.53;4975839;28;20023;-83
2022/12/07 06:04:56;;;;;;;22.48;10.80;;;;;;;1.54;100.00;98848.97;4986134;28;20031;-79
2022/12/07 06:07:41;;;;;;;21.35;10.02;;;;;;;1.42;100.00;98829.66;4988108;28;20038;-82
2022/12/07 06:10:07;;;;;;;20.30;9.13;;;;;;;1.56;100.00;98857.69;4991341;28;20054;-80
2022/12/07 06:12:38;;;;;;;21.15;9.75;;;;;;;1.64;100.00;98854.28;4988775;28;20035;-79
2022/12/07 06:15:03;;;;;;;23.55;10.48;;;;;;;1.57;100.00;98854.00;4977291;28;20046;-78
2022/12/07 06:17:29;;;;;;;19.38;10.02;;;;;;;1.38;100.00;98830.91;4987231;28;20027;-77
2022/12/07 06:23:16;;;;;;;24.23;14.13;;;;;;;1.24;100.00;98820.72;5007431;28;20064;-79
2022/12/07 06:26:04;;;;;;;23.42;12.80;;;;;;;1.08;100.00;98803.50;4983488;28;20105;-86
2022/12/07 06:28:29;;;;;;;23.27;12.82;;;;;;;1.43;100.00;98860.66;4994129;28;20113;-77
2022/12/07 06:30:59;;;;;;;23.55;12.23;;;;;;;1.29;100.00;98837.97;4999104;28;20112;-79
2022/12/07 06:33:25;;;;;;;21.95;10.80;;;;;;;1.02;100.00;98796.09;4988039;28;20035;-77
2022/12/07 06:35:51;;;;;;;24.42;11.70;;;;;;;1.25;100.00;98838.38;4987849;28;20399;-79
2022/12/07 06:38:17;;;;;;;23.42;12.20;;;;;;;1.19;100.00;98828.31;5022432;28;20058;-83
2022/12/07 06:40:45;;;;;;;25.13;12.23;;;;;;;1.42;100.00;98866.16;4982962;28;20035;-84
2022/12/07 06:43:10;;;;;;;20.98;9.27;;;;;;;1.16;100.00;98828.59;4984407;28;20102;-79
2022/12/07 06:45:35;;;;;;;20.48;11.18;;;;;;;1.13;100.00;98812.88;4994099;28;20018;-86
2022/12/07 06:48:01;;;;;;;17.90;10.07;;;;;;;1.08;100.00;98810.66;5004999;28;20026;-78
2022/12/07 06:50:26;;;;;;;20.30;9.18;;;;;;;1.42;100.00;98860.81;4981748;28;20027;-77
2022/12/07 06:52:52;;;;;;;18.00;8.63;;;;;;;1.42;100.00;98864.31;4974691;28;20031;-75
2022/12/07 06:55:18;;;;;;;17.63;8.60;;;;;;;1.45;100.00;98868.50;4967591;28;20049;-77
2022/12/07 06:57:43;;;;;;;17.42;8.65;;;;;;;1.33;100.00;98841.16;4977382;28;20105;-76
2022/12/07 07:00:09;;;;;;;16.70;8.30;;;;;;;1.41;100.00;98856.44;4976974;28;20048;-75
2022/12/07 07:02:34;;;;;;;17.05;8.40;;;;;;;1.53;100.00;98865.97;4974052;28;20087;-77
2022/12/07 07:04:59;;;;;;;17.65;8.57;;;;;;;1.54;100.00;98860.47;4978414;28;20023;-77
2022/12/07 07:07:25;;;;;;;16.25;8.32;;;;;;;1.41;100.00;98835.94;4968532;28;20031;-77
2022/12/07 07:09:50;;;;;;;18.77;8.98;;;;;;;1.58;100.00;98862.88;4973482;28;20033;-77
2022/12/07 07:12:16;;;;;;;16.75;8.23;;;;;;;1.48;100.00;98845.06;4969392;28;20027;-76
2022/12/07 07:14:44;;;;;;;17.13;8.65;;;;;;;1.48;100.00;98839.72;4972167;28;20037;-81
2022/12/07 07:17:09;;;;;;;20.00;8.23;;;;;;;1.42;100.00;98827.00;4962918;28;20030;-73
2022/12/07 07:19:34;;;;;;;15.27;7.70;;;;;;;1.58;100.00;98860.22;4974479;28;20560;-74
2022/12/07 07:22:09;;;;;;;15.32;7.68;;;;;;;1.58;100.00;98854.88;4976673;28;20057;-77
2022/12/07 07:24:34;;;;;;;16.75;7.78;;;;;;;1.66;100.00;98865.66;4982061;28;20446;-79
2022/12/07 07:27:00;;;;;;;15.55;8.30;;;;;;;1.59;100.00;98846.72;4978400;28;20031;-77
2022/12/07 07:32:47;;;;;;;18.52;9.50;;;;;;;1.73;100.00;98858.75;4991482;28;20045;-78
2022/12/07 07:35:13;;;;;;;15.52;8.18;;;;;;;1.56;100.00;98811.50;4990670;28;21133;-81
2022/12/07 07:37:39;;;;;;;17.23;7.32;;;;;;;1.42;100.00;98794.16;4981874;28;20019;-82
2022/12/07 07:40:06;;;;;;;15.70;8.13;;;;;;;1.72;100.00;98833.88;4985086;28;20089;-80
2022/12/07 07:42:31;;;;;;;16.20;7.38;;;;;;;1.68;100.00;98831.69;4998567;28;20026;-80
2022/12/07 07:44:56;;;;;;;18.38;7.97;;;;;;;1.55;100.00;98802.69;4997672;28;20082;-86
2022/12/07 07:47:22;;;;;;;18.92;7.90;;;;;;;1.86;100.00;98853.94;4998126;28;20023;-84
2022/12/07 07:49:47;;;;;;;17.65;8.45;;;;;;;1.90;100.00;98863.31;4995186;28;20026;-86
2022/12/07 07:52:12;;;;;;;17.83;7.75;;;;;;;1.58;100.00;98807.72;4999526;28;20023;-85
2022/12/07 07:54:38;;;;;;;21.08;9.45;;;;;;;1.53;100.00;98815.31;4995592;28;20011;-84
2022/12/07 07:57:03;;;;;;;17.10;8.40;;;;;;;1.32;100.00;98775.53;4999790;28;20019;-87
2022/12/07 07:59:30;;;;;;;17.30;8.02;;;;;;;2.06;100.00;98875.19;4990366;28;20063;-74
2022/12/07 08:01:58;;;;;;;16.23;7.60;;;;;;;1.62;100.00;98792.25;4997796;28;20023;-84
2022/12/07 08:04:24;;;;;;;19.17;7.90;;;;;;;1.66;100.00;98798.97;4998673;28;20074;-81
2022/12/07 08:06:49;;;;;;;15.55;8.07;;;;;;;1.80;100.00;98822.50;4997911;28;20010;-83
2022/12/07 08:09:14;;;;;;;16.42;8.20;;;;;;;1.66;100.00;98777.66;4996805;28;20018;-85
2022/12/07 08:11:40;;;;;;;14.52;7.53;;;;;;;1.74;100.00;98799.09;4987825;28;20039;-82
2022/12/07 08:14:05;;;;;;;17.23;8.13;;;;;;;1.70;100.00;98779.03;4995618;28;20022;-83
2022/12/07 08:16:30;;;;;;;16.05;7.50;;;;;;;2.33;100.00;98869.88;4993011;28;20080;-78
2022/12/07 08:18:56;;;;;;;14.60;7.18;;;;;;;2.32;100.00;98853.97;4982301;28;20066;-81
2022/12/07 08:24:43;;;;;;;17.70;6.57;;;;;;;2.31;100.00;98809.59;4991943;28;20091;-72
2022/12/07 08:27:33;;;;;;;13.02;7.03;;;;;;;2.75;100.00;98873.78;4982230;28;20117;-85
2022/12/07 08:30:31;;;;;;;16.58;7.72;;;;;;;2.91;100.00;98870.44;4979602;28;20042;-83
2022/12/07 08:33:40;;;;;;;13.93;6.85;;;;;;;3.06;100.00;98858.22;4983162;28;20039;-86
2022/12/07 08:36:11;;;;;;;15.23;7.05;;;;;;;3.02;100.00;98860.38;5000245;28;20030;-81
2022/12/07 08:38:38;;;;;;;15.75;7.15;;;;;;;3.05;100.00;98843.19;4997158;28;20086;-85
2022/12/07 08:41:04;;;;;;;13.68;7.32;;;;;;;3.02;100.00;98836.31;5014227;28;20038;-72
2022/12/07 08:47:30;;;;;;;18.48;7.68;;;;;;;3.22;100.00;98866.38;4927000;28;20100;-85
2022/12/07 08:53:21;;;;;;;17.58;6.53;;;;;;;3.03;100.00;98837.13;4938327;28;20038;-85
2022/12/07 08:55:47;;;;;;;19.55;7.32;;;;;;;2.89;100.00;98827.84;4930412;28;20034;-76
2022/12/07 08:58:13;;;;;;;14.55;7.15;;;;;;;3.09;100.00;98849.88;4970092;28;20058;-76
2022/12/07 09:00:38;;;;;;;14.35;6.80;;;;;;;3.10;100.00;98869.44;4967429;28;20035;-75
2022/12/07 09:03:04;;;;;;;14.35;7.35;;;;;;;2.74;100.00;98822.19;4962730;28;20045;-75
2022/12/07 09:15:55;;;;;;;13.75;7.13;;;;;;;3.72;100.00;98848.81;5010347;28;20157;-86
2022/12/07 09:18:35;;;;;;;18.05;6.80;;;;;;;3.94;100.00;98836.72;4975469;28;20026;-82
2022/12/07 09:21:21;;;;;;;11.80;6.10;;;;;;;4.14;100.00;98832.81;4988202;28;20632;-80
2022/12/07 09:23:46;;;;;;;14.30;7.55;;;;;;;3.55;100.00;98756.94;4975941;28;20027;-83
2022/12/07 09:26:11;;;;;;;14.15;6.45;;;;;;;3.62;100.00;98810.66;4965074;28;20042;-82
2022/12/07 09:28:37;;;;;;;16.65;7.60;;;;;;;3.71;100.00;98852.50;4978517;28;20023;-78
2022/12/07 09:31:04;;;;;;;14.43;7.30;;;;;;;3.53;100.00;98846.38;4986202;28;20567;-86
2022/12/07 09:33:29;;;;;;;12.35;6.72;;;;;;;3.29;100.00;98813.13;5002801;28;20023;-89
2022/12/07 09:35:54;;;;;;;12.82;6.60;;;;;;;3.15;100.00;98811.03;4991490;28;20041;-88
2022/12/07 09:38:20;;;;;;;13.80;5.03;;;;;;;3.10;100.00;98818.66;4996963;28;20026;-87
2022/12/07 09:40:47;;;;;;;14.80;5.88;;;;;;;3.14;100.00;98779.91;4997159;28;20023;-86
2022/12/07 09:43:24;;;;;;;13.98;5.50;;;;;;;3.42;100.00;98820.72;4979381;28;20118;-81
2022/12/07 09:45:54;;;;;;;10.60;4.85;;;;;;;3.22;100.00;98783.50;4981950;28;20034;-80
2022/12/07 09:49:03;;;;;;;10.63;5.30;;;;;;;3.75;100.00;98848.53;4975979;28;20050;-84
2022/12/07 09:51:28;;;;;;;10.63;4.75;;;;;;;3.89;100.00;98842.56;4983077;28;20110;-85
2022/12/07 09:53:57;;;;;;;8.48;4.47;;;;;;;3.95;100.00;98833.03;4961068;28;20054;-73
2022/12/07 09:56:23;;;;;;;15.75;4.95;;;;;;;3.96;100.00;98826.72;4989224;28;20503;-80
2022/12/07 09:58:57;;;;;;;9.85;6.05;;;;;;;3.81;100.00;98804.22;4973992;28;20035;-84
2022/12/07 10:01:22;;;;;;;10.55;4.75;;;;;;;3.86;100.00;98824.16;4981334;28;20026;-74
2022/12/07 10:03:54;;;;;;;9.18;4.03;;;;;;;3.89;100.00;98842.56;4992893;28;20045;-82
2022/12/07 10:06:20;;;;;;;9.73;5.07;;;;;;;3.45;100.00;98788.31;4983464;28;20030;-86
2022/12/07 10:08:46;;;;;;;10.55;5.22;;;;;;;3.66;100.00;98815.50;4982119;28;20035;-87
2022/12/07 10:11:12;;;;;;;9.35;4.60;;;;;;;3.43;100.00;98768.91;4982578;28;20085;-85
2022/12/07 10:13:47;;;;;;;10.80;4.55;;;;;;;3.31;100.00;98770.19;4984643;28;20022;-85
2022/12/07 10:16:28;;;;;;;10.02;4.22;;;;;;;3.71;100.00;98831.09;5006244;28;20053;-82
2022/12/07 10:18:54;;;;;;;10.48;4.40;;;;;;;3.32;100.00;98783.38;4981502;28;20587;-82
2022/12/07 10:21:25;;;;;;;7.53;4.47;;;;;;;3.51;100.00;98807.25;4983560;28;20030;-81
2022/12/07 10:24:16;;;;;;;9.10;4.68;;;;;;;3.37;100.00;98785.59;4999852;28;20022;-83
2022/12/07 10:26:51;;;;;;;10.13;4.18;;;;;;;3.23;100.00;98769.13;4985235;28;20128;-88
2022/12/07 10:29:28;;;;;;;7.70;3.85;;;;;;;3.51;100.00;98799.22;4991570;28;20018;-80
2022/12/07 10:32:13;;;;;;;7.00;3.20;;;;;;;3.68;100.00;98777.91;4975151;28;20081;-79
2022/12/07 10:34:38;;;;;;;10.10;3.20;;;;;;;3.95;100.00;98796.41;4968808;28;20066;-78
2022/12/07 10:37:14;;;;;;;6.05;3.22;;;;;;;4.05;100.00;98795.44;4976275;28;20481;-78
2022/12/07 10:39:49;;;;;;;7.90;3.85;;;;;;;4.28;100.00;98814.44;4993472;28;20369;-78
2022/12/07 10:42:20;;;;;;;8.57;4.13;;;;;;;4.37;100.00;98810.78;4981044;28;20022;-78
2022/12/07 10:44:47;;;;;;;8.35;4.93;;;;;;;4.43;100.00;98812.81;4970239;28;20033;-80
2022/12/07 10:47:31;;;;;;;9.50;3.60;;;;;;;4.64;100.00;98809.66;4968498;28;20038;-77
2022/12/07 10:50:34;;;;;;;6.88;3.25;;;;;;;4.70;100.00;98806.31;4981651;28;20041;-81
2022/12/07 10:53:05;;;;;;;10.07;3.67;;;;;;;5.06;100.00;98800.66;4987089;28;20374;-76
2022/12/07 10:55:42;;;;;;;6.28;3.15;;;;;;;4.95;100.00;98784.88;4966798;28;20031;-77
2022/12/07 10:58:16;;;;;;;6.75;3.33;;;;;;;4.87;100.00;98793.75;4970964;28;20081;-78
2022/12/07 11:00:56;;;;;;;5.35;3.03;;;;;;;4.99;100.00;98779.03;4971186;28;20053;-78
2022/12/07 11:03:45;;;;;;;4.30;2.70;;;;;;;5.05;100.00;98786.38;4980434;28;20031;-78
2022/12/07 11:06:23;;;;;;;7.32;3.20;;;;;;;5.18;100.00;98780.50;4965602;28;20043;-78
2022/12/07 11:09:01;;;;;;;6.13;3.17;;;;;;;4.93;100.00;98784.22;4972444;28;20086;-79
2022/12/07 11:11:44;;;;;;;10.73;3.05;;;;;;;5.11;100.00;98784.88;4983774;28;20043;-77
2022/12/07 11:14:31;;;;;;;5.20;2.92;;;;;;;5.03;100.00;98774.16;4991613;28;20312;-77
2022/12/07 11:17:03;;;;;;;7.47;3.25;;;;;;;5.23;100.00;98783.50;4971246;28;20026;-80
2022/12/07 11:19:51;;;;;;;8.82;3.63;;;;;;;5.24;100.00;98781.69;4973322;28;20050;-73
2022/12/07 11:22:49;;;;;;;7.78;3.45;;;;;;;5.17;100.00;98759.25;4974413;28;20019;-73
2022/12/07 11:25:39;;;;;;;6.38;3.70;;;;;;;4.80;100.00;98771.31;4976292;28;20086;-73
2022/12/07 11:28:07;;;;;;;8.45;3.38;;;;;;;4.61;100.00;98761.75;4973914;28;20030;-73
2022/12/07 11:30:47;;;;;;;8.07;3.75;;;;;;;4.77;100.00;98752.91;4976803;28;20742;-74
2022/12/07 11:33:27;;;;;;;10.63;3.95;;;;;;;4.69;100.00;98766.28;4967096;28;20449;-73
2022/12/07 11:36:27;;;;;;;7.10;3.70;;;;;;;4.74;100.00;98747.84;4972599;28;20035;-72
2022/12/07 11:38:58;;;;;;;8.20;4.40;;;;;;;4.56;100.00;98746.19;4983415;28;20042;-73
2022/12/07 11:41:30;;;;;;;9.45;4.68;;;;;;;4.50;100.00;98741.47;4973224;28;20803;-73
2022/12/07 11:43:58;;;;;;;9.43;4.57;;;;;;;4.66;100.00;98761.25;4962476;28;20015;-74
2022/12/07 11:46:59;;;;;;;7.78;4.28;;;;;;;4.34;100.00;98741.47;4963451;28;20030;-71
2022/12/07 11:49:38;;;;;;;10.27;4.15;;;;;;;4.48;100.00;98753.34;4919712;28;20031;-71
2022/12/07 11:52:09;;;;;;;11.77;4.57;;;;;;;4.27;100.00;98751.16;4969917;28;20034;-72
2022/12/07 11:54:40;;;;;;;8.48;4.38;;;;;;;4.28;100.00;98761.72;4966788;28;20043;-73
2022/12/07 11:57:12;;;;;;;13.68;4.63;;;;;;;4.28;100.00;98763.56;4978450;28;20023;-73
2022/12/07 11:59:48;;;;;;;10.13;4.70;;;;;;;4.17;100.00;98736.09;4970047;28;20023;-72
2022/12/07 12:02:32;;;;;;;8.85;4.10;;;;;;;3.96;100.00;98727.69;4968938;28;20080;-73
2022/12/07 12:05:17;;;;;;;8.30;4.15;;;;;;;4.01;100.00;98729.84;4966548;28;20101;-72
2022/12/07 12:07:46;;;;;;;8.70;4.43;;;;;;;4.02;100.00;98736.88;4968777;28;20113;-73
2022/12/07 12:10:20;;;;;;;9.88;4.75;;;;;;;3.94;100.00;98729.66;4967919;28;20093;-73
2022/12/07 12:13:05;;;;;;;13.80;4.90;;;;;;;4.01;100.00;98716.44;4959815;28;20477;-73
2022/12/07 12:15:56;;;;;;;9.18;4.85;;;;;;;4.16;100.00;98728.19;4966912;28;20027;-72
2022/12/07 12:18:37;;;;;;;8.95;5.10;;;;;;;4.24;100.00;98725.53;4962052;28;20035;-71
2022/12/07 12:21:17;;;;;;;9.15;4.72;;;;;;;4.06;100.00;98712.31;4974796;28;20034;-72
2022/12/07 12:23:48;;;;;;;9.88;5.03;;;;;;;4.05;100.00;98721.31;4964030;28;20090;-72
2022/12/07 12:26:20;;;;;;;10.07;5.32;;;;;;;4.13;100.00;98733.88;4981292;28;20035;-72
2022/12/07 12:28:52;;;;;;;9.32;5.07;;;;;;;4.15;100.00;98731.91;4967332;28;20043;-73
2022/12/07 12:31:20;;;;;;;9.00;4.68;;;;;;;4.17;100.00;98730.72;4964074;28;20045;-73
2022/12/07 12:33:57;;;;;;;10.55;5.32;;;;;;;4.19;100.00;98711.81;4985106;28;20031;-74
2022/12/07 12:36:45;;;;;;;12.75;5.75;;;;;;;4.04;100.00;98702.78;4968104;28;20026;-72
2022/12/07 12:39:14;;;;;;;9.63;5.13;;;;;;;4.19;100.00;98730.56;4975077;28;20062;-72
2022/12/07 12:42:05;;;;;;;10.32;5.60;;;;;;;4.14;100.00;98725.72;4965663;28;20031;-73
2022/12/07 12:44:31;;;;;;;12.82;5.30;;;;;;;4.15;100.00;98724.69;4963352;28;20109;-72